G. M. Dannevig — LINW — position and weather

sailwx.info

Track history (hours):
 
Tides and Currents Weather Stations Pressure Air Temp Water Temp Dewpoint Dewpoint Depression Visibility Wind Speed Wind Dir Waves Ship Positions

Oceanographic research ship G. M. Dannevig (Norway)

Detailed information on ship capabilities available from University of Delaware's Ocean Information Center.

Last reported at 2019-Aug-24 22:25 UTC. Time now 2019-Aug-24 22:39 UTC.
Position N 59°01' E 011°02'.

Length 27 m; draft 0.35 m.

Type: Dredging. MMSI: 258513000.

Date/timePositionNaut miles runAvg speedWind from/ knotsBaromVisibWave heightAir tempDewpointWater temp
2019-Aug-24 22:25N 59°01' E 011°02'0 0.0
2019-Aug-24 21:58N 59°01' E 011°02'0 0.0
2019-Aug-24 21:28N 59°01' E 011°02'0 0.0
2019-Aug-24 20:58N 59°01' E 011°02'0 0.0
2019-Aug-24 20:28N 59°01' E 011°02'0 0.0
2019-Aug-24 19:58N 59°01' E 011°02'0 0.0
2019-Aug-24 19:28N 59°01' E 011°02'0 0.0
2019-Aug-24 18:58N 59°01' E 011°02'0 0.0
2019-Aug-24 18:28N 59°01' E 011°02'0 0.0
2019-Aug-24 18:00N 59°01' E 011°02'0 0.0
2019-Aug-24 17:30N 59°01' E 011°02'0 0.0
2019-Aug-24 17:00N 59°01' E 011°02'0 0.0
2019-Aug-24 16:30N 59°01' E 011°02'0 0.0
2019-Aug-24 16:00N 59°01' E 011°02'0 0.0
2019-Aug-24 15:30N 59°01' E 011°02'0 0.0
2019-Aug-24 15:00N 59°01' E 011°02'0 0.0
2019-Aug-24 14:31N 59°01' E 011°02'0 0.0
2019-Aug-24 14:00N 59°01' E 011°02'0 0.0
2019-Aug-24 13:30N 59°01' E 011°02'0 0.0
2019-Aug-24 13:00N 59°01' E 011°02'0 0.0
2019-Aug-24 12:30N 59°01' E 011°02'2 3.2
2019-Aug-24 12:00N 59°02' E 010°59'1 1.4
2019-Aug-24 11:30N 59°02' E 010°58'0 1.0
2019-Aug-24 11:00N 59°02' E 010°57'3 5.3
2019-Aug-24 10:30N 59°01' E 011°02'0 0.0
2019-Aug-24 10:00N 59°01' E 011°02'0 0.0
2019-Aug-24 09:30N 59°01' E 011°02'0 0.0
2019-Aug-24 09:00N 59°01' E 011°02'0 0.0
2019-Aug-24 08:30N 59°01' E 011°02'0 0.0
2019-Aug-24 08:00N 59°01' E 011°02'0 0.0
2019-Aug-24 07:30N 59°01' E 011°02'0 0.0
2019-Aug-24 07:00N 59°01' E 011°02'0 0.0
2019-Aug-24 06:30N 59°01' E 011°02'0 0.0
2019-Aug-24 06:00N 59°01' E 011°02'0 0.0
2019-Aug-24 05:30N 59°01' E 011°02'0 0.0
2019-Aug-24 05:00N 59°01' E 011°02'0 0.0
2019-Aug-24 04:30N 59°01' E 011°02'0 0.0
2019-Aug-24 04:00N 59°01' E 011°02'0 0.0
2019-Aug-24 03:30N 59°01' E 011°02'0 0.0
2019-Aug-24 03:00N 59°01' E 011°02'0 0.0
2019-Aug-24 02:30N 59°01' E 011°02'0 0.0
2019-Aug-24 02:00N 59°01' E 011°02'0 0.0
2019-Aug-24 01:30N 59°01' E 011°02'0 0.0
2019-Aug-24 01:00N 59°01' E 011°02'0 0.0
2019-Aug-24 00:30N 59°01' E 011°02'0 0.0
2019-Aug-24 00:00N 59°01' E 011°02'0 0.0
2019-Aug-23 23:30N 59°01' E 011°02'0 0.0
2019-Aug-23 23:00N 59°01' E 011°02'0 0.0
2019-Aug-23 22:31N 59°01' E 011°02'0 0.0
2019-Aug-23 22:00N 59°01' E 011°02'0 0.0
2019-Aug-23 21:30N 59°01' E 011°02'0 0.0
2019-Aug-23 21:00N 59°01' E 011°02'0 0.0
2019-Aug-23 20:30N 59°01' E 011°02'0 0.0
2019-Aug-23 20:00N 59°01' E 011°02'0 0.0
2019-Aug-23 19:30N 59°01' E 011°02'0 0.0
2019-Aug-23 19:00N 59°01' E 011°02'0 0.0
2019-Aug-23 18:30N 59°01' E 011°02'0 0.0
2019-Aug-23 18:00N 59°01' E 011°02'0 0.0
2019-Aug-23 17:30N 59°01' E 011°02'0 0.0
2019-Aug-23 17:00N 59°01' E 011°02'0 0.0
2019-Aug-23 16:30N 59°01' E 011°02'0 0.0
2019-Aug-23 16:00N 59°01' E 011°02'1 1.3
2019-Aug-23 15:30N 59°01' E 011°02'4 8.3
2019-Aug-23 15:00N 59°01' E 010°54'3 5.9
2019-Aug-23 14:30N 59°03' E 010°50'4 8.6
2019-Aug-23 14:00N 59°07' E 010°46'4 9.0
2019-Aug-23 13:30N 59°10' E 010°40'5 9.3
2019-Aug-23 13:00N 59°13' E 010°33'1 1.3
2019-Aug-23 12:30N 59°13' E 010°32'0 0.0
2019-Aug-23 12:00N 59°13' E 010°32'0 0.0
2019-Aug-23 11:30N 59°13' E 010°32'0 0.0
2019-Aug-23 11:00N 59°13' E 010°32'0 0.0
2019-Aug-23 10:30N 59°13' E 010°32'0 0.0
2019-Aug-23 10:00N 59°13' E 010°32'0 0.0
2019-Aug-23 09:30N 59°13' E 010°32'0 0.1
2019-Aug-23 09:01N 59°13' E 010°32'1 1.7
2019-Aug-23 08:30N 59°13' E 010°33'0 0.2
2019-Aug-23 08:00N 59°13' E 010°33'0 0.9
2019-Aug-23 07:30N 59°13' E 010°34'0 0.4
2019-Aug-23 07:00N 59°13' E 010°34'4 7.8
2019-Aug-23 06:30N 59°15' E 010°27'1 2.5
2019-Aug-23 06:00N 59°16' E 010°25'0 0.0
2019-Aug-23 05:30N 59°16' E 010°25'0 0.0
2019-Aug-23 05:00N 59°16' E 010°25'0 0.0
2019-Aug-23 04:30N 59°16' E 010°25'0 0.0
2019-Aug-23 04:00N 59°16' E 010°25'0 0.0
2019-Aug-23 03:30N 59°16' E 010°25'0 0.0
2019-Aug-23 03:00N 59°16' E 010°25'0 0.0
2019-Aug-23 02:30N 59°16' E 010°25'0 0.0
2019-Aug-23 02:00N 59°16' E 010°25'0 0.0
2019-Aug-23 01:30N 59°16' E 010°25'0 0.0
2019-Aug-23 01:00N 59°16' E 010°25'0 0.0
2019-Aug-23 00:30N 59°16' E 010°25'0 0.0
2019-Aug-23 00:00N 59°16' E 010°25'0 0.0
2019-Aug-22 23:30N 59°16' E 010°25'0 0.0
2019-Aug-22 23:00N 59°16' E 010°25'0 0.0
2019-Aug-22 22:30N 59°16' E 010°25'0 0.0
2019-Aug-22 22:00N 59°16' E 010°25'0 0.0
2019-Aug-22 21:30N 59°16' E 010°25'0 0.0
2019-Aug-22 21:00N 59°16' E 010°25'0 0.0
2019-Aug-22 20:30N 59°16' E 010°25'0 0.0
2019-Aug-22 20:00N 59°16' E 010°25'0 0.0
2019-Aug-22 19:30N 59°16' E 010°25'0 0.0
2019-Aug-22 19:00N 59°16' E 010°25'0 0.0
2019-Aug-22 18:30N 59°16' E 010°25'0 0.0
2019-Aug-22 18:00N 59°16' E 010°25'0 0.0
2019-Aug-22 17:30N 59°16' E 010°25'0 0.0
2019-Aug-22 17:00N 59°16' E 010°25'0 0.0
2019-Aug-22 16:30N 59°16' E 010°25'0 0.0
2019-Aug-22 16:00N 59°16' E 010°25'0 0.0
2019-Aug-22 15:30N 59°16' E 010°25'0 0.0
2019-Aug-22 15:00N 59°16' E 010°25'0 0.0
2019-Aug-22 14:30N 59°16' E 010°25'0 0.0
2019-Aug-22 14:00N 59°16' E 010°25'0 0.0
2019-Aug-22 13:30N 59°16' E 010°25'3 5.8
2019-Aug-22 13:00N 59°14' E 010°30'1 2.5
2019-Aug-22 12:30N 59°13' E 010°32'0 0.0
2019-Aug-22 12:00N 59°13' E 010°32'0 0.0
2019-Aug-22 11:30N 59°13' E 010°32'0 0.0
2019-Aug-22 11:00N 59°13' E 010°32'0 0.0
2019-Aug-22 10:30N 59°13' E 010°32'0 0.0
2019-Aug-22 10:00N 59°13' E 010°32'0 0.0
2019-Aug-22 09:30N 59°13' E 010°32'0 0.0
2019-Aug-22 09:00N 59°13' E 010°32'0 0.0
2019-Aug-22 08:30N 59°13' E 010°32'0 0.0
2019-Aug-22 08:00N 59°13' E 010°32'0 0.0
2019-Aug-22 07:30N 59°13' E 010°32'0 0.0
2019-Aug-22 07:00N 59°13' E 010°32'0 0.0
2019-Aug-22 06:30N 59°13' E 010°32'0 0.0
2019-Aug-22 06:00N 59°13' E 010°32'0 0.0
2019-Aug-22 05:30N 59°13' E 010°32'0 0.0
2019-Aug-22 05:00N 59°13' E 010°32'0 0.0
2019-Aug-22 04:30N 59°13' E 010°32'0 0.0
2019-Aug-22 04:00N 59°13' E 010°32'0 0.0
2019-Aug-22 03:30N 59°13' E 010°32'0 0.0
2019-Aug-22 03:00N 59°13' E 010°32'0 0.0
2019-Aug-22 02:30N 59°13' E 010°32'0 0.0
2019-Aug-22 02:00N 59°13' E 010°32'0 0.0
2019-Aug-22 01:30N 59°13' E 010°32'0 0.0
2019-Aug-22 01:00N 59°13' E 010°32'0 0.0
2019-Aug-22 00:30N 59°13' E 010°32'0 0.0
2019-Aug-22 00:00N 59°13' E 010°32'0 0.0
2019-Aug-21 23:30N 59°13' E 010°32'0 0.0
2019-Aug-21 23:00N 59°13' E 010°32'0 0.0
2019-Aug-21 22:30N 59°13' E 010°32'0 0.0
2019-Aug-21 22:00N 59°13' E 010°32'0 0.0
2019-Aug-21 21:30N 59°13' E 010°32'0 0.0
2019-Aug-21 21:00N 59°13' E 010°32'0 0.0
2019-Aug-21 20:30N 59°13' E 010°32'0 0.0
2019-Aug-21 20:00N 59°13' E 010°32'0 0.0
2019-Aug-21 19:30N 59°13' E 010°32'0 0.0
2019-Aug-21 19:00N 59°13' E 010°32'0 0.0
2019-Aug-21 18:30N 59°13' E 010°32'0 0.0
2019-Aug-21 18:00N 59°13' E 010°32'0 0.0
2019-Aug-21 17:30N 59°13' E 010°32'0 0.0
2019-Aug-21 17:00N 59°13' E 010°32'0 0.0
2019-Aug-21 16:30N 59°13' E 010°32'0 0.0
2019-Aug-21 16:00N 59°13' E 010°32'0 0.0
2019-Aug-21 15:30N 59°13' E 010°32'0 0.0
2019-Aug-21 15:00N 59°13' E 010°32'0 0.0
2019-Aug-21 14:30N 59°13' E 010°32'0 0.0
2019-Aug-21 14:00N 59°13' E 010°32'0 0.0
2019-Aug-21 13:30N 59°13' E 010°32'0 0.0
2019-Aug-21 13:00N 59°13' E 010°32'0 0.0
2019-Aug-21 12:30N 59°13' E 010°32'0 0.0
2019-Aug-21 12:00N 59°13' E 010°32'0 0.0
2019-Aug-21 11:30N 59°13' E 010°32'0 0.0
2019-Aug-21 11:00N 59°13' E 010°32'0 0.0
2019-Aug-21 10:30N 59°13' E 010°32'0 0.0
2019-Aug-21 10:00N 59°13' E 010°32'0 0.0
2019-Aug-21 09:30N 59°13' E 010°32'0 0.9
2019-Aug-21 09:00N 59°13' E 010°31'3 6.3
2019-Aug-21 08:30N 59°15' E 010°26'1 1.2
2019-Aug-21 08:00N 59°16' E 010°25'0 0.0
2019-Aug-21 07:30N 59°16' E 010°25'0 0.0
2019-Aug-21 07:00N 59°16' E 010°25'0 0.0
2019-Aug-21 06:30N 59°16' E 010°25'0 0.0
2019-Aug-21 06:00N 59°16' E 010°25'0 0.0
2019-Aug-21 05:30N 59°16' E 010°25'0 0.0
2019-Aug-21 05:00N 59°16' E 010°25'0 0.0
2019-Aug-21 04:30N 59°16' E 010°25'0 0.0
2019-Aug-21 04:00N 59°16' E 010°25'0 0.0
2019-Aug-21 03:30N 59°16' E 010°25'0 0.0
2019-Aug-21 03:00N 59°16' E 010°25'0 0.0
2019-Aug-21 02:30N 59°16' E 010°25'0 0.0
2019-Aug-21 02:00N 59°16' E 010°25'0 0.0
2019-Aug-21 01:30N 59°16' E 010°25'0 0.0
2019-Aug-21 01:00N 59°16' E 010°25'0 0.0
2019-Aug-21 00:30N 59°16' E 010°25'0 0.0
2019-Aug-21 00:00N 59°16' E 010°25'0 0.0
2019-Aug-20 23:30N 59°16' E 010°25'0 0.0
2019-Aug-20 23:00N 59°16' E 010°25'0 0.0
2019-Aug-20 22:30N 59°16' E 010°25'0 0.0
2019-Aug-20 22:00N 59°16' E 010°25'0 0.0
2019-Aug-20 21:30N 59°16' E 010°25'0 0.0
2019-Aug-20 21:00N 59°16' E 010°25'0 0.0
2019-Aug-20 20:30N 59°16' E 010°25'0 0.0
2019-Aug-20 20:00N 59°16' E 010°25'0 0.0
2019-Aug-20 19:30N 59°16' E 010°25'0 0.0
2019-Aug-20 19:00N 59°16' E 010°25'0 0.0
2019-Aug-20 18:30N 59°16' E 010°25'0 0.0
2019-Aug-20 18:00N 59°16' E 010°25'0 0.0
2019-Aug-20 17:30N 59°16' E 010°25'0 0.0
2019-Aug-20 17:00N 59°16' E 010°25'0 0.0
2019-Aug-20 16:30N 59°16' E 010°25'0 0.0
2019-Aug-20 16:00N 59°16' E 010°25'0 0.0
2019-Aug-20 15:30N 59°16' E 010°25'0 0.0
2019-Aug-20 15:00N 59°16' E 010°25'0 0.0
2019-Aug-20 14:30N 59°16' E 010°25'0 0.0
2019-Aug-20 14:00N 59°16' E 010°25'0 0.0
2019-Aug-20 13:30N 59°16' E 010°25'1 1.3
2019-Aug-20 13:00N 59°15' E 010°26'3 5.5
2019-Aug-20 12:30N 59°14' E 010°31'1 1.6
2019-Aug-20 11:58N 59°13' E 010°32'0 0.0
2019-Aug-20 11:28N 59°13' E 010°32'0 0.0
2019-Aug-20 10:58N 59°13' E 010°32'0 0.0
2019-Aug-20 10:28N 59°13' E 010°32'0 0.0
2019-Aug-20 09:58N 59°13' E 010°32'0 0.0
2019-Aug-20 09:28N 59°13' E 010°32'0 0.0
2019-Aug-20 08:58N 59°13' E 010°32'0 0.0
2019-Aug-20 08:28N 59°13' E 010°32'1 2.1
2019-Aug-20 08:01N 59°14' E 010°30'3 5.6
2019-Aug-20 07:31N 59°15' E 010°26'0 0.8
2019-Aug-20 07:00N 59°16' E 010°25'0 0.0
2019-Aug-20 06:30N 59°16' E 010°25'0 0.0
2019-Aug-20 06:00N 59°16' E 010°25'0 0.0
2019-Aug-20 05:30N 59°16' E 010°25'0 0.0
2019-Aug-20 05:00N 59°16' E 010°25'0 0.0
2019-Aug-20 04:30N 59°16' E 010°25'0 0.0
2019-Aug-20 04:00N 59°16' E 010°25'0 0.0
2019-Aug-20 03:30N 59°16' E 010°25'0 0.0
2019-Aug-20 03:00N 59°16' E 010°25'0 0.0
2019-Aug-20 02:30N 59°16' E 010°25'0 0.0
2019-Aug-20 02:00N 59°16' E 010°25'0 0.0
2019-Aug-20 01:30N 59°16' E 010°25'0 0.0
2019-Aug-20 01:00N 59°16' E 010°25'0 0.0
2019-Aug-20 00:30N 59°16' E 010°25'0 0.0
2019-Aug-20 00:00N 59°16' E 010°25'0 0.0
2019-Aug-19 23:30N 59°16' E 010°25'0 0.0
2019-Aug-19 23:00N 59°16' E 010°25'0 0.0
2019-Aug-19 22:30N 59°16' E 010°25'0 0.0
2019-Aug-19 22:00N 59°16' E 010°25'0 0.0
2019-Aug-19 21:30N 59°16' E 010°25'0 0.0
2019-Aug-19 21:00N 59°16' E 010°25'0 0.0
2019-Aug-19 20:30N 59°16' E 010°25'0 0.0
2019-Aug-19 20:00N 59°16' E 010°25'0 0.0
2019-Aug-19 19:30N 59°16' E 010°25'0 0.0
2019-Aug-19 19:00N 59°16' E 010°25'0 0.0
2019-Aug-19 18:30N 59°16' E 010°25'0 0.0
2019-Aug-19 18:00N 59°16' E 010°25'0 0.0
2019-Aug-19 17:30N 59°16' E 010°25'0 0.0
2019-Aug-19 17:00N 59°16' E 010°25'0 0.0
2019-Aug-19 16:30N 59°16' E 010°25'0 0.0
2019-Aug-19 16:00N 59°16' E 010°25'0 0.0
2019-Aug-19 15:30N 59°16' E 010°25'0 0.0
2019-Aug-19 15:00N 59°16' E 010°25'0 0.0
2019-Aug-19 14:30N 59°16' E 010°25'0 0.0
2019-Aug-19 14:00N 59°16' E 010°25'0 0.0
2019-Aug-19 13:30N 59°16' E 010°25'0 0.0
2019-Aug-19 13:00N 59°16' E 010°25'0 0.0
2019-Aug-19 12:30N 59°16' E 010°25'0 0.0
2019-Aug-19 12:00N 59°16' E 010°25'0 0.0
2019-Aug-19 11:30N 59°16' E 010°25'0 0.0
2019-Aug-19 11:00N 59°16' E 010°25'0 0.0
2019-Aug-19 10:30N 59°16' E 010°25'0 0.0
2019-Aug-19 10:00N 59°16' E 010°25'0 0.0
2019-Aug-19 09:30N 59°16' E 010°25'0 0.0
2019-Aug-19 09:00N 59°16' E 010°25'0 0.0
2019-Aug-19 08:30N 59°16' E 010°25'0 0.0
2019-Aug-19 08:00N 59°16' E 010°25'0 0.0
2019-Aug-19 07:30N 59°16' E 010°25'0 0.0
2019-Aug-19 07:00N 59°16' E 010°25'0 0.0
2019-Aug-19 06:30N 59°16' E 010°25'0 0.0
2019-Aug-19 06:00N 59°16' E 010°25'0 0.0
2019-Aug-19 05:30N 59°16' E 010°25'0 0.0
2019-Aug-19 05:00N 59°16' E 010°25'0 0.0
2019-Aug-19 04:30N 59°16' E 010°25'0 0.0
2019-Aug-19 04:00N 59°16' E 010°25'0 0.0
2019-Aug-19 03:30N 59°16' E 010°25'0 0.0
2019-Aug-19 03:00N 59°16' E 010°25'0 0.0
2019-Aug-19 02:31N 59°16' E 010°25'0 0.0
2019-Aug-19 02:00N 59°16' E 010°25'0 0.0
2019-Aug-19 01:30N 59°16' E 010°25'0 0.0
2019-Aug-19 01:00N 59°16' E 010°25'0 0.0
2019-Aug-19 00:30N 59°16' E 010°25'0 0.0
2019-Aug-19 00:00N 59°16' E 010°25'0 0.0
2019-Aug-18 23:30N 59°16' E 010°25'0 0.0
2019-Aug-18 23:00N 59°16' E 010°25'0 0.0
2019-Aug-18 22:30N 59°16' E 010°25'0 0.0
2019-Aug-18 22:00N 59°16' E 010°25'0 0.0
2019-Aug-18 21:30N 59°16' E 010°25'0 0.0
2019-Aug-18 21:00N 59°16' E 010°25'0 0.0
2019-Aug-18 20:30N 59°16' E 010°25'0 0.0
2019-Aug-18 20:00N 59°16' E 010°25'0 0.0
2019-Aug-18 19:30N 59°16' E 010°25'0 0.0
2019-Aug-18 19:00N 59°16' E 010°25'0 0.0
2019-Aug-18 18:30N 59°16' E 010°25'0 0.0
2019-Aug-18 18:00N 59°16' E 010°25'0 0.1
2019-Aug-18 17:30N 59°16' E 010°25'0 0.1
2019-Aug-18 17:00N 59°16' E 010°25'0 0.0
2019-Aug-18 16:30N 59°16' E 010°25'0 0.0
2019-Aug-18 16:00N 59°16' E 010°25'0 0.0
2019-Aug-18 15:30N 59°16' E 010°25'0 0.0
2019-Aug-18 15:00N 59°16' E 010°25'0 0.0
2019-Aug-18 14:30N 59°16' E 010°25'0 0.0
2019-Aug-18 14:00N 59°16' E 010°25'0 0.0
2019-Aug-18 13:30N 59°16' E 010°25'0 0.0
2019-Aug-18 13:00N 59°16' E 010°25'0 0.0
2019-Aug-18 12:30N 59°16' E 010°25'0 0.0
2019-Aug-18 12:00N 59°16' E 010°25'0 0.0
2019-Aug-18 11:31N 59°16' E 010°25'0 0.0
2019-Aug-18 11:00N 59°16' E 010°25'0 0.0
2019-Aug-18 10:30N 59°16' E 010°25'0 0.0
2019-Aug-18 10:00N 59°16' E 010°25'0 0.0
2019-Aug-18 09:30N 59°16' E 010°25'0 0.0
2019-Aug-18 09:00N 59°16' E 010°25'0 0.0
2019-Aug-18 08:30N 59°16' E 010°25'0 0.0
2019-Aug-18 08:00N 59°16' E 010°25'0 0.0
2019-Aug-18 07:00N 59°16' E 010°25'0 0.0
2019-Aug-18 06:30N 59°16' E 010°25'0 0.1
2019-Aug-18 06:00N 59°16' E 010°25'0 0.1
2019-Aug-18 05:30N 59°16' E 010°25'0 0.0
2019-Aug-18 05:00N 59°16' E 010°25'0 0.0
2019-Aug-18 04:31N 59°16' E 010°25'0 0.0
2019-Aug-18 04:00N 59°16' E 010°25'0 0.0
2019-Aug-18 03:30N 59°16' E 010°25'0 0.0
2019-Aug-18 03:00N 59°16' E 010°25'0 0.0
2019-Aug-18 02:30N 59°16' E 010°25'0 0.0
2019-Aug-18 02:00N 59°16' E 010°25'0 0.0
2019-Aug-18 01:30N 59°16' E 010°25'0 0.0
2019-Aug-18 01:00N 59°16' E 010°25'0 0.0
2019-Aug-18 00:30N 59°16' E 010°25'0 0.0
2019-Aug-18 00:00N 59°16' E 010°25'0 0.0
2019-Aug-17 23:30N 59°16' E 010°25'0 0.0
2019-Aug-17 23:00N 59°16' E 010°25'0 0.0
2019-Aug-17 22:31N 59°16' E 010°25'0 0.0
2019-Aug-17 22:01N 59°16' E 010°25'0 0.0
2019-Aug-17 21:30N 59°16' E 010°25'0 0.0
2019-Aug-17 21:00N 59°16' E 010°25'0 0.0
2019-Aug-17 20:30N 59°16' E 010°25'0 0.0
2019-Aug-17 20:00N 59°16' E 010°25'0 0.0
2019-Aug-17 19:30N 59°16' E 010°25'0 0.0
2019-Aug-17 19:00N 59°16' E 010°25'0 0.0
2019-Aug-17 18:30N 59°16' E 010°25'0 0.0
2019-Aug-17 17:30N 59°16' E 010°25'0 0.0
2019-Aug-17 17:00N 59°16' E 010°25'0 0.0
2019-Aug-17 16:30N 59°16' E 010°25'0 0.0
2019-Aug-17 16:00N 59°16' E 010°25'0 0.0
2019-Aug-17 15:30N 59°16' E 010°25'0 0.0
2019-Aug-17 15:00N 59°16' E 010°25'0 0.0
2019-Aug-17 14:30N 59°16' E 010°25'0 0.0
2019-Aug-17 14:00N 59°16' E 010°25'0 0.0
2019-Aug-17 13:30N 59°16' E 010°25'0 0.0
2019-Aug-17 13:01N 59°16' E 010°25'0 0.0
2019-Aug-17 12:30N 59°16' E 010°25'0 0.0
2019-Aug-17 12:00N 59°16' E 010°25'0 0.0
2019-Aug-17 11:30N 59°16' E 010°25'0 0.0
2019-Aug-17 11:00N 59°16' E 010°25'0 0.0
2019-Aug-17 10:30N 59°16' E 010°25'0 0.0
2019-Aug-17 10:00N 59°16' E 010°25'0 0.0
2019-Aug-17 09:30N 59°16' E 010°25'0 0.0
2019-Aug-17 09:00N 59°16' E 010°25'0 0.0
2019-Aug-17 08:30N 59°16' E 010°25'0 0.0
2019-Aug-17 08:00N 59°16' E 010°25'0 0.0
2019-Aug-17 07:30N 59°16' E 010°25'0 0.0
2019-Aug-17 07:00N 59°16' E 010°25'0 0.0
2019-Aug-17 06:30N 59°16' E 010°25'0 0.0
2019-Aug-17 06:00N 59°16' E 010°25'0 0.0
2019-Aug-17 05:30N 59°16' E 010°25'0 0.0
2019-Aug-17 05:00N 59°16' E 010°25'0 0.0
2019-Aug-17 04:30N 59°16' E 010°25'0 0.0
2019-Aug-17 04:01N 59°16' E 010°25'0 0.0
2019-Aug-17 03:30N 59°16' E 010°25'0 0.0
2019-Aug-17 03:01N 59°16' E 010°25'0 0.0
2019-Aug-17 02:30N 59°16' E 010°25'0 0.0
2019-Aug-17 02:00N 59°16' E 010°25'0 0.0
2019-Aug-17 01:30N 59°16' E 010°25'0 0.0
2019-Aug-17 01:00N 59°16' E 010°25'0 0.0
2019-Aug-17 00:30N 59°16' E 010°25'0 0.0
2019-Aug-17 00:00N 59°16' E 010°25'0 0.0
2019-Aug-16 23:30N 59°16' E 010°25'0 0.0
2019-Aug-16 23:00N 59°16' E 010°25'0 0.0
2019-Aug-16 22:30N 59°16' E 010°25'0 0.0
2019-Aug-16 22:00N 59°16' E 010°25'0 0.0
2019-Aug-16 21:30N 59°16' E 010°25'0 0.0
2019-Aug-16 21:00N 59°16' E 010°25'0 0.0
2019-Aug-16 20:30N 59°16' E 010°25'0 0.0
2019-Aug-16 20:01N 59°16' E 010°25'0 0.0
2019-Aug-16 19:30N 59°16' E 010°25'0 0.0
2019-Aug-16 19:00N 59°16' E 010°25'0 0.0
2019-Aug-16 18:30N 59°16' E 010°25'0 0.0
2019-Aug-16 18:00N 59°16' E 010°25'0 0.0
2019-Aug-16 17:30N 59°16' E 010°25'0 0.0
2019-Aug-16 17:00N 59°16' E 010°25'0 0.0
2019-Aug-16 16:30N 59°16' E 010°25'0 0.0
2019-Aug-16 16:00N 59°16' E 010°25'0 0.0
2019-Aug-16 15:30N 59°16' E 010°25'0 0.0
2019-Aug-16 15:00N 59°16' E 010°25'0 0.0
2019-Aug-16 14:30N 59°16' E 010°25'0 0.0
2019-Aug-16 14:00N 59°16' E 010°25'0 0.0
2019-Aug-16 13:30N 59°16' E 010°25'0 0.0
2019-Aug-16 13:00N 59°16' E 010°25'0 0.0
2019-Aug-16 12:30N 59°16' E 010°25'0 0.0
2019-Aug-16 12:00N 59°16' E 010°25'0 0.0
2019-Aug-16 11:30N 59°16' E 010°25'1 2.4
2019-Aug-16 11:00N 59°15' E 010°27'3 5.9
2019-Aug-16 10:31N 59°13' E 010°32'0 0.0
2019-Aug-16 10:00N 59°13' E 010°32'0 0.0
2019-Aug-16 09:30N 59°13' E 010°32'0 0.0
2019-Aug-16 09:00N 59°13' E 010°32'0 0.0
2019-Aug-16 08:30N 59°13' E 010°32'0 0.0
2019-Aug-16 08:00N 59°13' E 010°32'0 0.0
2019-Aug-16 07:30N 59°13' E 010°32'0 0.0
2019-Aug-16 07:00N 59°13' E 010°32'0 0.0
2019-Aug-16 06:30N 59°13' E 010°32'0 0.0
2019-Aug-16 06:00N 59°13' E 010°32'0 0.0
2019-Aug-16 05:30N 59°13' E 010°32'0 0.0
2019-Aug-16 05:00N 59°13' E 010°32'0 0.0
2019-Aug-16 04:30N 59°13' E 010°32'0 0.0
2019-Aug-16 04:00N 59°13' E 010°32'0 0.0
2019-Aug-16 03:30N 59°13' E 010°32'0 0.0
2019-Aug-16 03:00N 59°13' E 010°32'0 0.0
2019-Aug-16 02:30N 59°13' E 010°32'0 0.0
2019-Aug-16 02:00N 59°13' E 010°32'0 0.0
2019-Aug-16 01:30N 59°13' E 010°32'0 0.0
2019-Aug-16 01:00N 59°13' E 010°32'0 0.0
2019-Aug-16 00:30N 59°13' E 010°32'0 0.0
2019-Aug-16 00:00N 59°13' E 010°32'0 0.0
2019-Aug-15 23:30N 59°13' E 010°32'0 0.0
2019-Aug-15 23:00N 59°13' E 010°32'0 0.0
2019-Aug-15 22:30N 59°13' E 010°32'0 0.0
2019-Aug-15 22:00N 59°13' E 010°32'0 0.0
2019-Aug-15 21:30N 59°13' E 010°32'0 0.0
2019-Aug-15 21:00N 59°13' E 010°32'0 0.0
2019-Aug-15 20:30N 59°13' E 010°32'0 0.0
2019-Aug-15 20:00N 59°13' E 010°32'0 0.0
2019-Aug-15 19:30N 59°13' E 010°32'0 0.0
2019-Aug-15 19:00N 59°13' E 010°32'0 0.0
2019-Aug-15 18:30N 59°13' E 010°32'0 0.0
2019-Aug-15 18:00N 59°13' E 010°32'0 0.0
2019-Aug-15 17:30N 59°13' E 010°32'0 0.0
2019-Aug-15 17:00N 59°13' E 010°32'0 0.0
2019-Aug-15 16:30N 59°13' E 010°32'0 0.0
2019-Aug-15 16:00N 59°13' E 010°32'0 0.0
2019-Aug-15 15:30N 59°13' E 010°32'0 0.0
2019-Aug-15 15:00N 59°13' E 010°32'0 0.0
2019-Aug-15 14:30N 59°13' E 010°32'0 0.0
2019-Aug-15 14:00N 59°13' E 010°32'0 0.0
2019-Aug-15 13:30N 59°13' E 010°32'0 0.0
2019-Aug-15 13:00N 59°13' E 010°32'0 0.0
2019-Aug-15 12:30N 59°13' E 010°32'0 0.0
2019-Aug-15 12:00N 59°13' E 010°32'0 0.0
2019-Aug-15 11:30N 59°13' E 010°32'0 0.0
2019-Aug-15 11:00N 59°13' E 010°32'0 0.0
2019-Aug-15 10:30N 59°13' E 010°32'0 0.0
2019-Aug-15 10:00N 59°13' E 010°32'0 0.0
2019-Aug-15 09:30N 59°13' E 010°32'0 0.0
2019-Aug-15 09:00N 59°13' E 010°32'0 0.0
2019-Aug-15 08:30N 59°13' E 010°32'0 0.0
2019-Aug-15 08:00N 59°13' E 010°32'0 0.0
2019-Aug-15 07:30N 59°13' E 010°32'0 0.0
2019-Aug-15 07:00N 59°13' E 010°32'0 0.0
2019-Aug-15 06:30N 59°13' E 010°32'0 0.0
2019-Aug-15 06:00N 59°13' E 010°32'0 0.0
2019-Aug-15 05:30N 59°13' E 010°32'0 0.0
2019-Aug-15 05:00N 59°13' E 010°32'0 0.0
2019-Aug-15 04:30N 59°13' E 010°32'0 0.0
2019-Aug-15 04:00N 59°13' E 010°32'0 0.0
2019-Aug-15 03:30N 59°13' E 010°32'0 0.0
2019-Aug-15 03:00N 59°13' E 010°32'0 0.0
2019-Aug-15 02:30N 59°13' E 010°32'0 0.0
2019-Aug-15 02:00N 59°13' E 010°32'0 0.0
2019-Aug-15 01:30N 59°13' E 010°32'0 0.0
2019-Aug-15 01:00N 59°13' E 010°32'0 0.0
2019-Aug-15 00:30N 59°13' E 010°32'0 0.0
2019-Aug-15 00:00N 59°13' E 010°32'0 0.0
2019-Aug-14 23:30N 59°13' E 010°32'0 0.0
2019-Aug-14 23:00N 59°13' E 010°32'0 0.0
2019-Aug-14 22:30N 59°13' E 010°32'  
Track history (hours):
 
Tides and Currents Weather Stations Pressure Air Temp Water Temp Dewpoint Dewpoint Depression Visibility Wind Speed Wind Dir Waves Ship Positions

Oceanographic research ship G. M. Dannevig (Norway)

Detailed information on ship capabilities available from University of Delaware's Ocean Information Center.

Last reported at 2019-Aug-24 22:25 UTC. Time now 2019-Aug-24 22:39 UTC.
Position N 59°01' E 011°02'.

Length 27 m; draft 0.35 m.

Type: Dredging. MMSI: 258513000.

Date/timePositionNaut miles runAvg speedWind from/ knotsBaromVisibWave heightAir tempDewpointWater temp
2019-Aug-24 22:25N 59°01' E 011°02'0 0.0
2019-Aug-24 21:58N 59°01' E 011°02'0 0.0
2019-Aug-24 21:28N 59°01' E 011°02'0 0.0
2019-Aug-24 20:58N 59°01' E 011°02'0 0.0
2019-Aug-24 20:28N 59°01' E 011°02'0 0.0
2019-Aug-24 19:58N 59°01' E 011°02'0 0.0
2019-Aug-24 19:28N 59°01' E 011°02'0 0.0
2019-Aug-24 18:58N 59°01' E 011°02'0 0.0
2019-Aug-24 18:28N 59°01' E 011°02'0 0.0
2019-Aug-24 18:00N 59°01' E 011°02'0 0.0
2019-Aug-24 17:30N 59°01' E 011°02'0 0.0
2019-Aug-24 17:00N 59°01' E 011°02'0 0.0
2019-Aug-24 16:30N 59°01' E 011°02'0 0.0
2019-Aug-24 16:00N 59°01' E 011°02'0 0.0
2019-Aug-24 15:30N 59°01' E 011°02'0 0.0
2019-Aug-24 15:00N 59°01' E 011°02'0 0.0
2019-Aug-24 14:31N 59°01' E 011°02'0 0.0
2019-Aug-24 14:00N 59°01' E 011°02'0 0.0
2019-Aug-24 13:30N 59°01' E 011°02'0 0.0
2019-Aug-24 13:00N 59°01' E 011°02'0 0.0
2019-Aug-24 12:30N 59°01' E 011°02'2 3.2
2019-Aug-24 12:00N 59°02' E 010°59'1 1.4
2019-Aug-24 11:30N 59°02' E 010°58'0 1.0
2019-Aug-24 11:00N 59°02' E 010°57'3 5.3
2019-Aug-24 10:30N 59°01' E 011°02'0 0.0
2019-Aug-24 10:00N 59°01' E 011°02'0 0.0
2019-Aug-24 09:30N 59°01' E 011°02'0 0.0
2019-Aug-24 09:00N 59°01' E 011°02'0 0.0
2019-Aug-24 08:30N 59°01' E 011°02'0 0.0
2019-Aug-24 08:00N 59°01' E 011°02'0 0.0
2019-Aug-24 07:30N 59°01' E 011°02'0 0.0
2019-Aug-24 07:00N 59°01' E 011°02'0 0.0
2019-Aug-24 06:30N 59°01' E 011°02'0 0.0
2019-Aug-24 06:00N 59°01' E 011°02'0 0.0
2019-Aug-24 05:30N 59°01' E 011°02'0 0.0
2019-Aug-24 05:00N 59°01' E 011°02'0 0.0
2019-Aug-24 04:30N 59°01' E 011°02'0 0.0
2019-Aug-24 04:00N 59°01' E 011°02'0 0.0
2019-Aug-24 03:30N 59°01' E 011°02'0 0.0
2019-Aug-24 03:00N 59°01' E 011°02'0 0.0
2019-Aug-24 02:30N 59°01' E 011°02'0 0.0
2019-Aug-24 02:00N 59°01' E 011°02'0 0.0
2019-Aug-24 01:30N 59°01' E 011°02'0 0.0
2019-Aug-24 01:00N 59°01' E 011°02'0 0.0
2019-Aug-24 00:30N 59°01' E 011°02'0 0.0
2019-Aug-24 00:00N 59°01' E 011°02'0 0.0
2019-Aug-23 23:30N 59°01' E 011°02'0 0.0
2019-Aug-23 23:00N 59°01' E 011°02'0 0.0
2019-Aug-23 22:31N 59°01' E 011°02'0 0.0
2019-Aug-23 22:00N 59°01' E 011°02'0 0.0
2019-Aug-23 21:30N 59°01' E 011°02'0 0.0
2019-Aug-23 21:00N 59°01' E 011°02'0 0.0
2019-Aug-23 20:30N 59°01' E 011°02'0 0.0
2019-Aug-23 20:00N 59°01' E 011°02'0 0.0
2019-Aug-23 19:30N 59°01' E 011°02'0 0.0
2019-Aug-23 19:00N 59°01' E 011°02'0 0.0
2019-Aug-23 18:30N 59°01' E 011°02'0 0.0
2019-Aug-23 18:00N 59°01' E 011°02'0 0.0
2019-Aug-23 17:30N 59°01' E 011°02'0 0.0
2019-Aug-23 17:00N 59°01' E 011°02'0 0.0
2019-Aug-23 16:30N 59°01' E 011°02'0 0.0
2019-Aug-23 16:00N 59°01' E 011°02'1 1.3
2019-Aug-23 15:30N 59°01' E 011°02'4 8.3
2019-Aug-23 15:00N 59°01' E 010°54'3 5.9
2019-Aug-23 14:30N 59°03' E 010°50'4 8.6
2019-Aug-23 14:00N 59°07' E 010°46'4 9.0
2019-Aug-23 13:30N 59°10' E 010°40'5 9.3
2019-Aug-23 13:00N 59°13' E 010°33'1 1.3
2019-Aug-23 12:30N 59°13' E 010°32'0 0.0
2019-Aug-23 12:00N 59°13' E 010°32'0 0.0
2019-Aug-23 11:30N 59°13' E 010°32'0 0.0
2019-Aug-23 11:00N 59°13' E 010°32'0 0.0
2019-Aug-23 10:30N 59°13' E 010°32'0 0.0
2019-Aug-23 10:00N 59°13' E 010°32'0 0.0
2019-Aug-23 09:30N 59°13' E 010°32'0 0.1
2019-Aug-23 09:01N 59°13' E 010°32'1 1.7
2019-Aug-23 08:30N 59°13' E 010°33'0 0.2
2019-Aug-23 08:00N 59°13' E 010°33'0 0.9
2019-Aug-23 07:30N 59°13' E 010°34'0 0.4
2019-Aug-23 07:00N 59°13' E 010°34'4 7.8
2019-Aug-23 06:30N 59°15' E 010°27'1 2.5
2019-Aug-23 06:00N 59°16' E 010°25'0 0.0
2019-Aug-23 05:30N 59°16' E 010°25'0 0.0
2019-Aug-23 05:00N 59°16' E 010°25'0 0.0
2019-Aug-23 04:30N 59°16' E 010°25'0 0.0
2019-Aug-23 04:00N 59°16' E 010°25'0 0.0
2019-Aug-23 03:30N 59°16' E 010°25'0 0.0
2019-Aug-23 03:00N 59°16' E 010°25'0 0.0
2019-Aug-23 02:30N 59°16' E 010°25'0 0.0
2019-Aug-23 02:00N 59°16' E 010°25'0 0.0
2019-Aug-23 01:30N 59°16' E 010°25'0 0.0
2019-Aug-23 01:00N 59°16' E 010°25'0 0.0
2019-Aug-23 00:30N 59°16' E 010°25'0 0.0
2019-Aug-23 00:00N 59°16' E 010°25'0 0.0
2019-Aug-22 23:30N 59°16' E 010°25'0 0.0
2019-Aug-22 23:00N 59°16' E 010°25'0 0.0
2019-Aug-22 22:30N 59°16' E 010°25'0 0.0
2019-Aug-22 22:00N 59°16' E 010°25'0 0.0
2019-Aug-22 21:30N 59°16' E 010°25'0 0.0
2019-Aug-22 21:00N 59°16' E 010°25'0 0.0
2019-Aug-22 20:30N 59°16' E 010°25'0 0.0
2019-Aug-22 20:00N 59°16' E 010°25'0 0.0
2019-Aug-22 19:30N 59°16' E 010°25'0 0.0
2019-Aug-22 19:00N 59°16' E 010°25'0 0.0
2019-Aug-22 18:30N 59°16' E 010°25'0 0.0
2019-Aug-22 18:00N 59°16' E 010°25'0 0.0
2019-Aug-22 17:30N 59°16' E 010°25'0 0.0
2019-Aug-22 17:00N 59°16' E 010°25'0 0.0
2019-Aug-22 16:30N 59°16' E 010°25'0 0.0
2019-Aug-22 16:00N 59°16' E 010°25'0 0.0
2019-Aug-22 15:30N 59°16' E 010°25'0 0.0
2019-Aug-22 15:00N 59°16' E 010°25'0 0.0
2019-Aug-22 14:30N 59°16' E 010°25'0 0.0
2019-Aug-22 14:00N 59°16' E 010°25'0 0.0
2019-Aug-22 13:30N 59°16' E 010°25'3 5.8
2019-Aug-22 13:00N 59°14' E 010°30'1 2.5
2019-Aug-22 12:30N 59°13' E 010°32'0 0.0
2019-Aug-22 12:00N 59°13' E 010°32'0 0.0
2019-Aug-22 11:30N 59°13' E 010°32'0 0.0
2019-Aug-22 11:00N 59°13' E 010°32'0 0.0
2019-Aug-22 10:30N 59°13' E 010°32'0 0.0
2019-Aug-22 10:00N 59°13' E 010°32'0 0.0
2019-Aug-22 09:30N 59°13' E 010°32'0 0.0
2019-Aug-22 09:00N 59°13' E 010°32'0 0.0
2019-Aug-22 08:30N 59°13' E 010°32'0 0.0
2019-Aug-22 08:00N 59°13' E 010°32'0 0.0
2019-Aug-22 07:30N 59°13' E 010°32'0 0.0
2019-Aug-22 07:00N 59°13' E 010°32'0 0.0
2019-Aug-22 06:30N 59°13' E 010°32'0 0.0
2019-Aug-22 06:00N 59°13' E 010°32'0 0.0
2019-Aug-22 05:30N 59°13' E 010°32'0 0.0
2019-Aug-22 05:00N 59°13' E 010°32'0 0.0
2019-Aug-22 04:30N 59°13' E 010°32'0 0.0
2019-Aug-22 04:00N 59°13' E 010°32'0 0.0
2019-Aug-22 03:30N 59°13' E 010°32'0 0.0
2019-Aug-22 03:00N 59°13' E 010°32'0 0.0
2019-Aug-22 02:30N 59°13' E 010°32'0 0.0
2019-Aug-22 02:00N 59°13' E 010°32'0 0.0
2019-Aug-22 01:30N 59°13' E 010°32'0 0.0
2019-Aug-22 01:00N 59°13' E 010°32'0 0.0
2019-Aug-22 00:30N 59°13' E 010°32'0 0.0
2019-Aug-22 00:00N 59°13' E 010°32'0 0.0
2019-Aug-21 23:30N 59°13' E 010°32'0 0.0
2019-Aug-21 23:00N 59°13' E 010°32'0 0.0
2019-Aug-21 22:30N 59°13' E 010°32'0 0.0
2019-Aug-21 22:00N 59°13' E 010°32'0 0.0
2019-Aug-21 21:30N 59°13' E 010°32'0 0.0
2019-Aug-21 21:00N 59°13' E 010°32'0 0.0
2019-Aug-21 20:30N 59°13' E 010°32'0 0.0
2019-Aug-21 20:00N 59°13' E 010°32'0 0.0
2019-Aug-21 19:30N 59°13' E 010°32'0 0.0
2019-Aug-21 19:00N 59°13' E 010°32'0 0.0
2019-Aug-21 18:30N 59°13' E 010°32'0 0.0
2019-Aug-21 18:00N 59°13' E 010°32'0 0.0
2019-Aug-21 17:30N 59°13' E 010°32'0 0.0
2019-Aug-21 17:00N 59°13' E 010°32'0 0.0
2019-Aug-21 16:30N 59°13' E 010°32'0 0.0
2019-Aug-21 16:00N 59°13' E 010°32'0 0.0
2019-Aug-21 15:30N 59°13' E 010°32'0 0.0
2019-Aug-21 15:00N 59°13' E 010°32'0 0.0
2019-Aug-21 14:30N 59°13' E 010°32'0 0.0
2019-Aug-21 14:00N 59°13' E 010°32'0 0.0
2019-Aug-21 13:30N 59°13' E 010°32'0 0.0
2019-Aug-21 13:00N 59°13' E 010°32'0 0.0
2019-Aug-21 12:30N 59°13' E 010°32'0 0.0
2019-Aug-21 12:00N 59°13' E 010°32'0 0.0
2019-Aug-21 11:30N 59°13' E 010°32'0 0.0
2019-Aug-21 11:00N 59°13' E 010°32'0 0.0
2019-Aug-21 10:30N 59°13' E 010°32'0 0.0
2019-Aug-21 10:00N 59°13' E 010°32'0 0.0
2019-Aug-21 09:30N 59°13' E 010°32'0 0.9
2019-Aug-21 09:00N 59°13' E 010°31'3 6.3
2019-Aug-21 08:30N 59°15' E 010°26'1 1.2
2019-Aug-21 08:00N 59°16' E 010°25'0 0.0
2019-Aug-21 07:30N 59°16' E 010°25'0 0.0
2019-Aug-21 07:00N 59°16' E 010°25'0 0.0
2019-Aug-21 06:30N 59°16' E 010°25'0 0.0
2019-Aug-21 06:00N 59°16' E 010°25'0 0.0
2019-Aug-21 05:30N 59°16' E 010°25'0 0.0
2019-Aug-21 05:00N 59°16' E 010°25'0 0.0
2019-Aug-21 04:30N 59°16' E 010°25'0 0.0
2019-Aug-21 04:00N 59°16' E 010°25'0 0.0
2019-Aug-21 03:30N 59°16' E 010°25'0 0.0
2019-Aug-21 03:00N 59°16' E 010°25'0 0.0
2019-Aug-21 02:30N 59°16' E 010°25'0 0.0
2019-Aug-21 02:00N 59°16' E 010°25'0 0.0
2019-Aug-21 01:30N 59°16' E 010°25'0 0.0
2019-Aug-21 01:00N 59°16' E 010°25'0 0.0
2019-Aug-21 00:30N 59°16' E 010°25'0 0.0
2019-Aug-21 00:00N 59°16' E 010°25'0 0.0
2019-Aug-20 23:30N 59°16' E 010°25'0 0.0
2019-Aug-20 23:00N 59°16' E 010°25'0 0.0
2019-Aug-20 22:30N 59°16' E 010°25'0 0.0
2019-Aug-20 22:00N 59°16' E 010°25'0 0.0
2019-Aug-20 21:30N 59°16' E 010°25'0 0.0
2019-Aug-20 21:00N 59°16' E 010°25'0 0.0
2019-Aug-20 20:30N 59°16' E 010°25'0 0.0
2019-Aug-20 20:00N 59°16' E 010°25'0 0.0
2019-Aug-20 19:30N 59°16' E 010°25'0 0.0
2019-Aug-20 19:00N 59°16' E 010°25'0 0.0
2019-Aug-20 18:30N 59°16' E 010°25'0 0.0
2019-Aug-20 18:00N 59°16' E 010°25'0 0.0
2019-Aug-20 17:30N 59°16' E 010°25'0 0.0
2019-Aug-20 17:00N 59°16' E 010°25'0 0.0
2019-Aug-20 16:30N 59°16' E 010°25'0 0.0
2019-Aug-20 16:00N 59°16' E 010°25'0 0.0
2019-Aug-20 15:30N 59°16' E 010°25'0 0.0
2019-Aug-20 15:00N 59°16' E 010°25'0 0.0
2019-Aug-20 14:30N 59°16' E 010°25'0 0.0
2019-Aug-20 14:00N 59°16' E 010°25'0 0.0
2019-Aug-20 13:30N 59°16' E 010°25'1 1.3
2019-Aug-20 13:00N 59°15' E 010°26'3 5.5
2019-Aug-20 12:30N 59°14' E 010°31'1 1.6
2019-Aug-20 11:58N 59°13' E 010°32'0 0.0
2019-Aug-20 11:28N 59°13' E 010°32'0 0.0
2019-Aug-20 10:58N 59°13' E 010°32'0 0.0
2019-Aug-20 10:28N 59°13' E 010°32'0 0.0
2019-Aug-20 09:58N 59°13' E 010°32'0 0.0
2019-Aug-20 09:28N 59°13' E 010°32'0 0.0
2019-Aug-20 08:58N 59°13' E 010°32'0 0.0
2019-Aug-20 08:28N 59°13' E 010°32'1 2.1
2019-Aug-20 08:01N 59°14' E 010°30'3 5.6
2019-Aug-20 07:31N 59°15' E 010°26'0 0.8
2019-Aug-20 07:00N 59°16' E 010°25'0 0.0
2019-Aug-20 06:30N 59°16' E 010°25'0 0.0
2019-Aug-20 06:00N 59°16' E 010°25'0 0.0
2019-Aug-20 05:30N 59°16' E 010°25'0 0.0
2019-Aug-20 05:00N 59°16' E 010°25'0 0.0
2019-Aug-20 04:30N 59°16' E 010°25'0 0.0
2019-Aug-20 04:00N 59°16' E 010°25'0 0.0
2019-Aug-20 03:30N 59°16' E 010°25'0 0.0
2019-Aug-20 03:00N 59°16' E 010°25'0 0.0
2019-Aug-20 02:30N 59°16' E 010°25'0 0.0
2019-Aug-20 02:00N 59°16' E 010°25'0 0.0
2019-Aug-20 01:30N 59°16' E 010°25'0 0.0
2019-Aug-20 01:00N 59°16' E 010°25'0 0.0
2019-Aug-20 00:30N 59°16' E 010°25'0 0.0
2019-Aug-20 00:00N 59°16' E 010°25'0 0.0
2019-Aug-19 23:30N 59°16' E 010°25'0 0.0
2019-Aug-19 23:00N 59°16' E 010°25'0 0.0
2019-Aug-19 22:30N 59°16' E 010°25'0 0.0
2019-Aug-19 22:00N 59°16' E 010°25'0 0.0
2019-Aug-19 21:30N 59°16' E 010°25'0 0.0
2019-Aug-19 21:00N 59°16' E 010°25'0 0.0
2019-Aug-19 20:30N 59°16' E 010°25'0 0.0
2019-Aug-19 20:00N 59°16' E 010°25'0 0.0
2019-Aug-19 19:30N 59°16' E 010°25'0 0.0
2019-Aug-19 19:00N 59°16' E 010°25'0 0.0
2019-Aug-19 18:30N 59°16' E 010°25'0 0.0
2019-Aug-19 18:00N 59°16' E 010°25'0 0.0
2019-Aug-19 17:30N 59°16' E 010°25'0 0.0
2019-Aug-19 17:00N 59°16' E 010°25'0 0.0
2019-Aug-19 16:30N 59°16' E 010°25'0 0.0
2019-Aug-19 16:00N 59°16' E 010°25'0 0.0
2019-Aug-19 15:30N 59°16' E 010°25'0 0.0
2019-Aug-19 15:00N 59°16' E 010°25'0 0.0
2019-Aug-19 14:30N 59°16' E 010°25'0 0.0
2019-Aug-19 14:00N 59°16' E 010°25'0 0.0
2019-Aug-19 13:30N 59°16' E 010°25'0 0.0
2019-Aug-19 13:00N 59°16' E 010°25'0 0.0
2019-Aug-19 12:30N 59°16' E 010°25'0 0.0
2019-Aug-19 12:00N 59°16' E 010°25'0 0.0
2019-Aug-19 11:30N 59°16' E 010°25'0 0.0
2019-Aug-19 11:00N 59°16' E 010°25'0 0.0
2019-Aug-19 10:30N 59°16' E 010°25'0 0.0
2019-Aug-19 10:00N 59°16' E 010°25'0 0.0
2019-Aug-19 09:30N 59°16' E 010°25'0 0.0
2019-Aug-19 09:00N 59°16' E 010°25'0 0.0
2019-Aug-19 08:30N 59°16' E 010°25'0 0.0
2019-Aug-19 08:00N 59°16' E 010°25'0 0.0
2019-Aug-19 07:30N 59°16' E 010°25'0 0.0
2019-Aug-19 07:00N 59°16' E 010°25'0 0.0
2019-Aug-19 06:30N 59°16' E 010°25'0 0.0
2019-Aug-19 06:00N 59°16' E 010°25'0 0.0
2019-Aug-19 05:30N 59°16' E 010°25'0 0.0
2019-Aug-19 05:00N 59°16' E 010°25'0 0.0
2019-Aug-19 04:30N 59°16' E 010°25'0 0.0
2019-Aug-19 04:00N 59°16' E 010°25'0 0.0
2019-Aug-19 03:30N 59°16' E 010°25'0 0.0
2019-Aug-19 03:00N 59°16' E 010°25'0 0.0
2019-Aug-19 02:31N 59°16' E 010°25'0 0.0
2019-Aug-19 02:00N 59°16' E 010°25'0 0.0
2019-Aug-19 01:30N 59°16' E 010°25'0 0.0
2019-Aug-19 01:00N 59°16' E 010°25'0 0.0
2019-Aug-19 00:30N 59°16' E 010°25'0 0.0
2019-Aug-19 00:00N 59°16' E 010°25'0 0.0
2019-Aug-18 23:30N 59°16' E 010°25'0 0.0
2019-Aug-18 23:00N 59°16' E 010°25'0 0.0
2019-Aug-18 22:30N 59°16' E 010°25'0 0.0
2019-Aug-18 22:00N 59°16' E 010°25'0 0.0
2019-Aug-18 21:30N 59°16' E 010°25'0 0.0
2019-Aug-18 21:00N 59°16' E 010°25'0 0.0
2019-Aug-18 20:30N 59°16' E 010°25'0 0.0
2019-Aug-18 20:00N 59°16' E 010°25'0 0.0
2019-Aug-18 19:30N 59°16' E 010°25'0 0.0
2019-Aug-18 19:00N 59°16' E 010°25'0 0.0
2019-Aug-18 18:30N 59°16' E 010°25'0 0.0
2019-Aug-18 18:00N 59°16' E 010°25'0 0.1
2019-Aug-18 17:30N 59°16' E 010°25'0 0.1
2019-Aug-18 17:00N 59°16' E 010°25'0 0.0
2019-Aug-18 16:30N 59°16' E 010°25'0 0.0
2019-Aug-18 16:00N 59°16' E 010°25'0 0.0
2019-Aug-18 15:30N 59°16' E 010°25'0 0.0
2019-Aug-18 15:00N 59°16' E 010°25'0 0.0
2019-Aug-18 14:30N 59°16' E 010°25'0 0.0
2019-Aug-18 14:00N 59°16' E 010°25'0 0.0
2019-Aug-18 13:30N 59°16' E 010°25'0 0.0
2019-Aug-18 13:00N 59°16' E 010°25'0 0.0
2019-Aug-18 12:30N 59°16' E 010°25'0 0.0
2019-Aug-18 12:00N 59°16' E 010°25'0 0.0
2019-Aug-18 11:31N 59°16' E 010°25'0 0.0
2019-Aug-18 11:00N 59°16' E 010°25'0 0.0
2019-Aug-18 10:30N 59°16' E 010°25'0 0.0
2019-Aug-18 10:00N 59°16' E 010°25'0 0.0
2019-Aug-18 09:30N 59°16' E 010°25'0 0.0
2019-Aug-18 09:00N 59°16' E 010°25'0 0.0
2019-Aug-18 08:30N 59°16' E 010°25'0 0.0
2019-Aug-18 08:00N 59°16' E 010°25'0 0.0
2019-Aug-18 07:00N 59°16' E 010°25'0 0.0
2019-Aug-18 06:30N 59°16' E 010°25'0 0.1
2019-Aug-18 06:00N 59°16' E 010°25'0 0.1
2019-Aug-18 05:30N 59°16' E 010°25'0 0.0
2019-Aug-18 05:00N 59°16' E 010°25'0 0.0
2019-Aug-18 04:31N 59°16' E 010°25'0 0.0
2019-Aug-18 04:00N 59°16' E 010°25'0 0.0
2019-Aug-18 03:30N 59°16' E 010°25'0 0.0
2019-Aug-18 03:00N 59°16' E 010°25'0 0.0
2019-Aug-18 02:30N 59°16' E 010°25'0 0.0
2019-Aug-18 02:00N 59°16' E 010°25'0 0.0
2019-Aug-18 01:30N 59°16' E 010°25'0 0.0
2019-Aug-18 01:00N 59°16' E 010°25'0 0.0
2019-Aug-18 00:30N 59°16' E 010°25'0 0.0
2019-Aug-18 00:00N 59°16' E 010°25'0 0.0
2019-Aug-17 23:30N 59°16' E 010°25'0 0.0
2019-Aug-17 23:00N 59°16' E 010°25'0 0.0
2019-Aug-17 22:31N 59°16' E 010°25'0 0.0
2019-Aug-17 22:01N 59°16' E 010°25'0 0.0
2019-Aug-17 21:30N 59°16' E 010°25'0 0.0
2019-Aug-17 21:00N 59°16' E 010°25'0 0.0
2019-Aug-17 20:30N 59°16' E 010°25'0 0.0
2019-Aug-17 20:00N 59°16' E 010°25'0 0.0
2019-Aug-17 19:30N 59°16' E 010°25'0 0.0
2019-Aug-17 19:00N 59°16' E 010°25'0 0.0
2019-Aug-17 18:30N 59°16' E 010°25'0 0.0
2019-Aug-17 17:30N 59°16' E 010°25'0 0.0
2019-Aug-17 17:00N 59°16' E 010°25'0 0.0
2019-Aug-17 16:30N 59°16' E 010°25'0 0.0
2019-Aug-17 16:00N 59°16' E 010°25'0 0.0
2019-Aug-17 15:30N 59°16' E 010°25'0 0.0
2019-Aug-17 15:00N 59°16' E 010°25'0 0.0
2019-Aug-17 14:30N 59°16' E 010°25'0 0.0
2019-Aug-17 14:00N 59°16' E 010°25'0 0.0
2019-Aug-17 13:30N 59°16' E 010°25'0 0.0
2019-Aug-17 13:01N 59°16' E 010°25'0 0.0
2019-Aug-17 12:30N 59°16' E 010°25'0 0.0
2019-Aug-17 12:00N 59°16' E 010°25'0 0.0
2019-Aug-17 11:30N 59°16' E 010°25'0 0.0
2019-Aug-17 11:00N 59°16' E 010°25'0 0.0
2019-Aug-17 10:30N 59°16' E 010°25'0 0.0
2019-Aug-17 10:00N 59°16' E 010°25'0 0.0
2019-Aug-17 09:30N 59°16' E 010°25'0 0.0
2019-Aug-17 09:00N 59°16' E 010°25'0 0.0
2019-Aug-17 08:30N 59°16' E 010°25'0 0.0
2019-Aug-17 08:00N 59°16' E 010°25'0 0.0
2019-Aug-17 07:30N 59°16' E 010°25'0 0.0
2019-Aug-17 07:00N 59°16' E 010°25'0 0.0
2019-Aug-17 06:30N 59°16' E 010°25'0 0.0
2019-Aug-17 06:00N 59°16' E 010°25'0 0.0
2019-Aug-17 05:30N 59°16' E 010°25'0 0.0
2019-Aug-17 05:00N 59°16' E 010°25'0 0.0
2019-Aug-17 04:30N 59°16' E 010°25'0 0.0
2019-Aug-17 04:01N 59°16' E 010°25'0 0.0
2019-Aug-17 03:30N 59°16' E 010°25'0 0.0
2019-Aug-17 03:01N 59°16' E 010°25'0 0.0
2019-Aug-17 02:30N 59°16' E 010°25'0 0.0
2019-Aug-17 02:00N 59°16' E 010°25'0 0.0
2019-Aug-17 01:30N 59°16' E 010°25'0 0.0
2019-Aug-17 01:00N 59°16' E 010°25'0 0.0
2019-Aug-17 00:30N 59°16' E 010°25'0 0.0
2019-Aug-17 00:00N 59°16' E 010°25'0 0.0
2019-Aug-16 23:30N 59°16' E 010°25'0 0.0
2019-Aug-16 23:00N 59°16' E 010°25'0 0.0
2019-Aug-16 22:30N 59°16' E 010°25'0 0.0
2019-Aug-16 22:00N 59°16' E 010°25'0 0.0
2019-Aug-16 21:30N 59°16' E 010°25'0 0.0
2019-Aug-16 21:00N 59°16' E 010°25'0 0.0
2019-Aug-16 20:30N 59°16' E 010°25'0 0.0
2019-Aug-16 20:01N 59°16' E 010°25'0 0.0
2019-Aug-16 19:30N 59°16' E 010°25'0 0.0
2019-Aug-16 19:00N 59°16' E 010°25'0 0.0
2019-Aug-16 18:30N 59°16' E 010°25'0 0.0
2019-Aug-16 18:00N 59°16' E 010°25'0 0.0
2019-Aug-16 17:30N 59°16' E 010°25'0 0.0
2019-Aug-16 17:00N 59°16' E 010°25'0 0.0
2019-Aug-16 16:30N 59°16' E 010°25'0 0.0
2019-Aug-16 16:00N 59°16' E 010°25'0 0.0
2019-Aug-16 15:30N 59°16' E 010°25'0 0.0
2019-Aug-16 15:00N 59°16' E 010°25'0 0.0
2019-Aug-16 14:30N 59°16' E 010°25'0 0.0
2019-Aug-16 14:00N 59°16' E 010°25'0 0.0
2019-Aug-16 13:30N 59°16' E 010°25'0 0.0
2019-Aug-16 13:00N 59°16' E 010°25'0 0.0
2019-Aug-16 12:30N 59°16' E 010°25'0 0.0
2019-Aug-16 12:00N 59°16' E 010°25'0 0.0
2019-Aug-16 11:30N 59°16' E 010°25'1 2.4
2019-Aug-16 11:00N 59°15' E 010°27'3 5.9
2019-Aug-16 10:31N 59°13' E 010°32'0 0.0
2019-Aug-16 10:00N 59°13' E 010°32'0 0.0
2019-Aug-16 09:30N 59°13' E 010°32'0 0.0
2019-Aug-16 09:00N 59°13' E 010°32'0 0.0
2019-Aug-16 08:30N 59°13' E 010°32'0 0.0
2019-Aug-16 08:00N 59°13' E 010°32'0 0.0
2019-Aug-16 07:30N 59°13' E 010°32'0 0.0
2019-Aug-16 07:00N 59°13' E 010°32'0 0.0
2019-Aug-16 06:30N 59°13' E 010°32'0 0.0
2019-Aug-16 06:00N 59°13' E 010°32'0 0.0
2019-Aug-16 05:30N 59°13' E 010°32'0 0.0
2019-Aug-16 05:00N 59°13' E 010°32'0 0.0
2019-Aug-16 04:30N 59°13' E 010°32'0 0.0
2019-Aug-16 04:00N 59°13' E 010°32'0 0.0
2019-Aug-16 03:30N 59°13' E 010°32'0 0.0
2019-Aug-16 03:00N 59°13' E 010°32'0 0.0
2019-Aug-16 02:30N 59°13' E 010°32'0 0.0
2019-Aug-16 02:00N 59°13' E 010°32'0 0.0
2019-Aug-16 01:30N 59°13' E 010°32'0 0.0
2019-Aug-16 01:00N 59°13' E 010°32'0 0.0
2019-Aug-16 00:30N 59°13' E 010°32'0 0.0
2019-Aug-16 00:00N 59°13' E 010°32'0 0.0
2019-Aug-15 23:30N 59°13' E 010°32'0 0.0
2019-Aug-15 23:00N 59°13' E 010°32'0 0.0
2019-Aug-15 22:30N 59°13' E 010°32'0 0.0
2019-Aug-15 22:00N 59°13' E 010°32'0 0.0
2019-Aug-15 21:30N 59°13' E 010°32'0 0.0
2019-Aug-15 21:00N 59°13' E 010°32'0 0.0
2019-Aug-15 20:30N 59°13' E 010°32'0 0.0
2019-Aug-15 20:00N 59°13' E 010°32'0 0.0
2019-Aug-15 19:30N 59°13' E 010°32'0 0.0
2019-Aug-15 19:00N 59°13' E 010°32'0 0.0
2019-Aug-15 18:30N 59°13' E 010°32'0 0.0
2019-Aug-15 18:00N 59°13' E 010°32'0 0.0
2019-Aug-15 17:30N 59°13' E 010°32'0 0.0
2019-Aug-15 17:00N 59°13' E 010°32'0 0.0
2019-Aug-15 16:30N 59°13' E 010°32'0 0.0
2019-Aug-15 16:00N 59°13' E 010°32'0 0.0
2019-Aug-15 15:30N 59°13' E 010°32'0 0.0
2019-Aug-15 15:00N 59°13' E 010°32'0 0.0
2019-Aug-15 14:30N 59°13' E 010°32'0 0.0
2019-Aug-15 14:00N 59°13' E 010°32'0 0.0
2019-Aug-15 13:30N 59°13' E 010°32'0 0.0
2019-Aug-15 13:00N 59°13' E 010°32'0 0.0
2019-Aug-15 12:30N 59°13' E 010°32'0 0.0
2019-Aug-15 12:00N 59°13' E 010°32'0 0.0
2019-Aug-15 11:30N 59°13' E 010°32'0 0.0
2019-Aug-15 11:00N 59°13' E 010°32'0 0.0
2019-Aug-15 10:30N 59°13' E 010°32'0 0.0
2019-Aug-15 10:00N 59°13' E 010°32'0 0.0
2019-Aug-15 09:30N 59°13' E 010°32'0 0.0
2019-Aug-15 09:00N 59°13' E 010°32'0 0.0
2019-Aug-15 08:30N 59°13' E 010°32'0 0.0
2019-Aug-15 08:00N 59°13' E 010°32'0 0.0
2019-Aug-15 07:30N 59°13' E 010°32'0 0.0
2019-Aug-15 07:00N 59°13' E 010°32'0 0.0
2019-Aug-15 06:30N 59°13' E 010°32'0 0.0
2019-Aug-15 06:00N 59°13' E 010°32'0 0.0
2019-Aug-15 05:30N 59°13' E 010°32'0 0.0
2019-Aug-15 05:00N 59°13' E 010°32'0 0.0
2019-Aug-15 04:30N 59°13' E 010°32'0 0.0
2019-Aug-15 04:00N 59°13' E 010°32'0 0.0
2019-Aug-15 03:30N 59°13' E 010°32'0 0.0
2019-Aug-15 03:00N 59°13' E 010°32'0 0.0
2019-Aug-15 02:30N 59°13' E 010°32'0 0.0
2019-Aug-15 02:00N 59°13' E 010°32'0 0.0
2019-Aug-15 01:30N 59°13' E 010°32'0 0.0
2019-Aug-15 01:00N 59°13' E 010°32'0 0.0
2019-Aug-15 00:30N 59°13' E 010°32'0 0.0
2019-Aug-15 00:00N 59°13' E 010°32'0 0.0
2019-Aug-14 23:30N 59°13' E 010°32'0 0.0
2019-Aug-14 23:00N 59°13' E 010°32'0 0.0
2019-Aug-14 22:30N 59°13' E 010°32'  

Dump ship's entire track history